Time;durP1;ratioP1;P1;durP2;ratioP2;P2;SDS_P1;SDS_P2;PMS_P1;PMS_P2;Temp;Humidity;BMP_temperature;BMP_pressure;BME280_temperature;BME280_humidity;BME280_pressure;Samples;Min_cycle;Max_cycle;Signal;HPM_P1;HPM_P2
2022/06/19 00:01:06;;;;;;;3.63;1.58;;;28.90;80.50;;;;;;21035972;28;20281;-76
2022/06/19 00:11:10;;;;;;;4.95;1.23;;;27.30;89.90;;;;;;21009581;28;20736;-76
2022/06/19 00:21:15;;;;;;;3.72;1.30;;;;;;;;;;21038638;28;20297;-75
2022/06/19 00:31:18;;;;;;;3.17;1.30;;;;;;;;;;21043480;28;20216;-75
2022/06/19 00:41:20;;;;;;;3.17;1.40;;;;;;;;;;21034612;28;20280;-75
2022/06/19 00:51:21;;;;;;;6.05;1.42;;;;;;;;;;20967027;28;20239;-75
2022/06/19 01:01:27;;;;;;;8.10;1.38;;;28.20;92.50;;;;;;20950471;28;20254;-75
2022/06/19 01:11:33;;;;;;;6.07;1.90;;;28.00;92.50;;;;;;20950371;28;20212;-75
2022/06/19 01:21:36;;;;;;;7.25;1.77;;;;;;;;;;21051103;28;20236;-76
2022/06/19 01:31:42;;;;;;;3.53;1.42;;;;;;;;;;21047790;28;20283;-75
2022/06/19 01:41:44;;;;;;;8.15;1.63;;;;;;;;;;21079899;28;20289;-75
2022/06/19 01:51:46;;;;;;;5.10;1.73;;;;;;;;;;21012245;28;20234;-77
2022/06/19 02:01:50;;;;;;;5.90;1.67;;;;;;;;;;20981659;28;20225;-75
2022/06/19 02:11:52;;;;;;;3.97;1.30;;;28.00;92.10;;;;;;21033803;28;20220;-75
2022/06/19 02:21:55;;;;;;;4.47;1.52;;;;;;;;;;20974984;28;20230;-76
2022/06/19 02:32:00;;;;;;;5.78;1.60;;;;;;;;;;20943933;28;20561;-73
2022/06/19 02:42:19;;;;;;;5.90;1.38;;;27.20;82.70;;;;;;20958349;28;20278;-73
2022/06/19 02:52:21;;;;;;;3.70;1.55;;;;;;;;;;21047407;28;20215;-72
2022/06/19 03:02:23;;;;;;;3.83;1.08;;;;;;;;;;21023779;28;20275;-73
2022/06/19 03:12:25;;;;;;;3.13;1.23;;;;;;;;;;21022917;28;20259;-73
2022/06/19 03:22:28;;;;;;;3.75;1.30;;;;;;;;;;20964266;22;20244;-84
2022/06/19 03:32:29;;;;;;;4.55;1.40;;;;;;;;;;20856999;28;20216;-83
2022/06/19 03:42:31;;;;;;;3.20;1.17;;;;;;;;;;20855793;28;20247;-83
2022/06/19 03:52:33;;;;;;;3.65;1.08;;;;;;;;;;20888193;28;20221;-84
2022/06/19 04:02:34;;;;;;;7.07;1.40;;;26.60;88.10;;;;;;20889211;28;20278;-80
2022/06/19 04:12:36;;;;;;;4.13;1.30;;;;;;;;;;20906485;28;20250;-82
2022/06/19 04:22:40;;;;;;;4.30;1.65;;;;;;;;;;20920790;28;20300;-81
2022/06/19 04:32:42;;;;;;;4.35;1.40;;;;;;;;;;20941278;28;20267;-84
2022/06/19 04:42:44;;;;;;;4.00;1.35;;;;;;;;;;20888376;28;20283;-82
2022/06/19 04:52:46;;;;;;;3.72;1.08;;;;;;;;;;20909568;28;20274;-81
2022/06/19 05:02:49;;;;;;;3.83;1.15;;;26.50;91.70;;;;;;20900197;28;20232;-82
2022/06/19 05:12:55;;;;;;;4.28;1.65;;;;;;;;;;20899036;28;20210;-80
2022/06/19 05:23:10;;;;;;;4.10;1.10;;;;;;;;;;20884188;28;20246;-82
2022/06/19 05:33:11;;;;;;;5.38;1.60;;;;;;;;;;20898211;28;20278;-82
2022/06/19 05:43:14;;;;;;;6.85;1.60;;;;;;;;;;20896256;28;20794;-80
2022/06/19 05:53:15;;;;;;;6.35;1.40;;;;;;;;;;20881077;28;20247;-82
2022/06/19 06:03:18;;;;;;;5.13;1.80;;;;;;;;;;20879430;28;20229;-81
2022/06/19 06:13:20;;;;;;;3.42;1.25;;;;;;;;;;20862092;28;20242;-81
2022/06/19 06:23:22;;;;;;;4.40;1.60;;;;;;;;;;20911299;28;20286;-83
2022/06/19 06:33:25;;;;;;;7.28;1.90;;;27.90;90.40;;;;;;20893770;28;20224;-80
2022/06/19 06:43:27;;;;;;;2.88;1.52;;;;;;;;;;20861860;28;20221;-82
2022/06/19 06:53:30;;;;;;;4.85;1.80;;;;;;;;;;20874152;28;20282;-84
2022/06/19 07:03:32;;;;;;;3.78;1.75;;;;;;;;;;20858487;28;20229;-82
2022/06/19 07:13:34;;;;;;;3.70;1.27;;;;;;;;;;20874535;28;20221;-84
2022/06/19 07:23:36;;;;;;;3.60;1.92;;;;;;;;;;20908228;28;20260;-82
2022/06/19 07:33:39;;;;;;;5.68;1.65;;;29.50;93.50;;;;;;20856882;28;20620;-83
2022/06/19 07:43:43;;;;;;;2.75;1.60;;;;;;;;;;20878499;28;20256;-82
2022/06/19 07:53:47;;;;;;;2.53;1.67;;;;;;;;;;20935190;28;20630;-82
2022/06/19 08:03:50;;;;;;;3.30;1.75;;;;;;;;;;20866778;28;20714;-83
2022/06/19 08:13:53;;;;;;;6.85;1.65;;;;;;;;;;20934683;28;20230;-81
2022/06/19 08:23:55;;;;;;;2.83;1.80;;;;;;;;;;20854149;28;20275;-81
2022/06/19 08:33:57;;;;;;;3.42;1.33;;;;;;;;;;20889797;28;20218;-83
2022/06/19 08:44:10;;;;;;;5.35;1.42;;;;;;;;;;20853419;28;20276;-85
2022/06/19 08:54:31;;;;;;;6.25;1.70;;;;;;;;;;20983624;28;20628;-83
2022/06/19 09:21:02;;;;;;;3.45;1.38;;;32.40;82.40;;;;;;21264818;27;20588;-75
2022/06/19 09:31:16;;;;;;;2.95;1.55;;;;;;;;;;21156218;27;20204;-72
2022/06/19 09:41:49;;;;;;;2.53;1.30;;;32.70;71.80;;;;;;21161927;28;20260;-74
2022/06/19 09:52:00;;;;;;;3.83;1.80;;;;;;;;;;21176200;27;20834;-73
2022/06/19 10:02:21;;;;;;;4.28;1.65;;;;;;;;;;21200436;27;20284;-74
2022/06/19 10:12:47;;;;;;;4.70;1.73;;;33.40;77.50;;;;;;21225128;27;20231;-72
2022/06/19 10:23:10;;;;;;;4.78;1.70;;;33.60;63.70;;;;;;21195335;27;20216;-72
2022/06/19 10:33:31;;;;;;;3.60;1.70;;;;;;;;;;21109826;28;20277;-73
2022/06/19 10:43:36;;;;;;;2.78;1.30;;;;;;;;;;21129236;28;20257;-73
2022/06/19 10:54:15;;;;;;;6.68;2.10;;;34.20;63.50;;;;;;21113001;28;20224;-73
2022/06/19 11:04:31;;;;;;;5.43;1.73;;;34.30;73.20;;;;;;21139941;28;20265;-71
2022/06/19 11:14:34;;;;;;;3.45;1.45;;;;;;;;;;21099585;28;20254;-72
2022/06/19 11:24:39;;;;;;;2.42;1.60;;;;;;;;;;21106972;28;20234;-72
2022/06/19 11:35:03;;;;;;;2.10;1.30;;;34.80;74.10;;;;;;21094290;28;20289;-71
2022/06/19 11:45:13;;;;;;;2.70;1.38;;;;;;;;;;21136050;28;20202;-72
2022/06/19 11:55:27;;;;;;;4.60;1.73;;;35.10;63.80;;;;;;21070357;28;20220;-73
2022/06/19 12:05:39;;;;;;;2.72;1.55;;;;;;;;;;21025760;28;20242;-74
2022/06/19 12:15:54;;;;;;;2.88;1.20;;;35.40;73.80;;;;;;21023016;28;20740;-74
2022/06/19 12:25:59;;;;;;;5.90;1.77;;;;;;;;;;21051645;28;20223;-76
2022/06/19 12:36:01;;;;;;;4.57;1.63;;;36.70;64.70;;;;;;21103947;28;20273;-76
2022/06/19 12:46:08;;;;;;;2.97;1.45;;;35.70;69.90;;;;;;21108065;28;20288;-76
2022/06/19 12:56:33;;;;;;;4.20;1.58;;;35.90;59.10;;;;;;21112224;28;20211;-75
2022/06/19 13:06:48;;;;;;;2.65;1.58;;;;;;;;;;21119716;28;20913;-76
2022/06/19 13:16:50;;;;;;;3.88;1.35;;;;;;;;;;21100183;28;20219;-76
2022/06/19 13:27:11;;;;;;;3.67;1.50;;;36.10;68.10;;;;;;21120122;28;20266;-78
2022/06/19 13:37:13;;;;;;;5.80;1.60;;;;;;;;;;21033938;28;20276;-76
2022/06/19 13:47:22;;;;;;;3.58;1.60;;;36.10;69.20;;;;;;21081090;28;20215;-74
2022/06/19 13:57:46;;;;;;;5.53;1.60;;;36.40;57.20;;;;;;21117121;28;20241;-75
2022/06/19 14:08:07;;;;;;;2.60;1.35;;;;;;;;;;21133234;28;20212;-76
2022/06/19 14:18:28;;;;;;;6.13;2.08;;;;;;;;;;21132831;28;20592;-76
2022/06/19 14:28:45;;;;;;;1.95;1.23;;;;;;;;;;21105210;28;20630;-76
2022/06/19 14:38:52;;;;;;;2.53;1.80;;;;;;;;;;21120866;28;20215;-76
2022/06/19 14:49:27;;;;;;;5.97;1.70;;;36.60;64.30;;;;;;21095859;28;20265;-76
2022/06/19 14:59:40;;;;;;;5.43;1.80;;;36.60;63.60;;;;;;21061360;28;20284;-76
2022/06/19 15:09:49;;;;;;;3.95;1.70;;;;;;;;;;21095783;28;20215;-76
2022/06/19 15:19:51;;;;;;;3.42;1.23;;;;;;;;;;21126352;28;20238;-78
2022/06/19 15:29:56;;;;;;;2.13;1.45;;;36.60;54.00;;;;;;21111293;28;20264;-75
2022/06/19 15:40:17;;;;;;;4.18;1.83;;;;;;;;;;21118720;28;20682;-77
2022/06/19 15:50:41;;;;;;;3.75;1.70;;;37.00;60.20;;;;;;21101913;28;20207;-77
2022/06/19 16:00:53;;;;;;;3.63;1.50;;;37.00;60.40;;;;;;21097429;28;20208;-77
2022/06/19 16:10:56;;;;;;;4.18;1.48;;;;;;;;;;21083179;28;20582;-76
2022/06/19 16:21:03;;;;;;;3.85;1.45;;;;;;;;;;21093237;28;20598;-77
2022/06/19 16:31:08;;;;;;;3.25;1.50;;;;;;;;;;21098237;28;20674;-72
2022/06/19 16:51:51;;;;;;;4.05;1.58;;;36.80;68.30;;;;;;21127378;28;20232;-74
2022/06/19 17:01:58;;;;;;;5.93;1.83;;;;;;;;;;21084843;28;20550;-75
2022/06/19 17:12:01;;;;;;;3.50;1.80;;;;;;;;;;21085240;28;20383;-74
2022/06/19 17:22:05;;;;;;;2.67;1.35;;;;;;;;;;21074766;28;20216;-75
2022/06/19 17:32:19;;;;;;;2.50;1.33;;;;;;;;;;21106684;28;20232;-73
2022/06/19 17:42:29;;;;;;;2.70;1.50;;;35.60;66.80;;;;;;21125258;28;20253;-72
2022/06/19 17:52:31;;;;;;;3.58;1.25;;;;;;;;;;21084245;28;20371;-72
2022/06/19 18:02:34;;;;;;;4.80;1.50;;;;;;;;;;21138837;28;20694;-73
2022/06/19 18:12:43;;;;;;;4.93;1.77;;;34.20;73.60;;;;;;21122393;28;20281;-72
2022/06/19 18:22:45;;;;;;;2.85;1.33;;;;;;;;;;21105917;28;20204;-72
2022/06/19 18:32:48;;;;;;;4.97;1.73;;;;;;;;;;21121139;28;20236;-73
2022/06/19 18:42:50;;;;;;;4.68;1.67;;;;;;;;;;21120622;28;20228;-74
2022/06/19 18:52:52;;;;;;;2.15;1.10;;;;;;;;;;21087776;28;20277;-74
2022/06/19 19:02:54;;;;;;;2.78;1.10;;;;;;;;;;21045385;28;20257;-74
2022/06/19 19:12:56;;;;;;;4.40;1.13;;;;;;;;;;21092549;28;20269;-74
2022/06/19 19:23:00;;;;;;;2.85;1.23;;;;;;;;;;21082877;28;20273;-72
2022/06/19 19:33:03;;;;;;;2.50;1.30;;;31.40;82.00;;;;;;21104713;28;20212;-73
2022/06/19 19:43:08;;;;;;;5.25;1.10;;;;;;;;;;21123951;28;20224;-71
2022/06/19 19:53:22;;;;;;;3.08;1.13;;;31.10;80.50;;;;;;21125505;28;20224;-74
2022/06/19 20:03:25;;;;;;;3.33;1.33;;;30.80;83.20;;;;;;21045216;28;20357;-74
2022/06/19 20:13:27;;;;;;;3.42;1.40;;;;;;;;;;21109819;28;20216;-74
2022/06/19 20:23:34;;;;;;;1.83;0.90;;;;;;;;;;21080042;28;20265;-75
2022/06/19 20:33:36;;;;;;;4.53;1.08;;;;;;;;;;21096083;28;20316;-74
2022/06/19 20:43:38;;;;;;;5.65;1.20;;;;;;;;;;21098027;28;20200;-75
2022/06/19 20:53:40;;;;;;;6.90;0.80;;;;;;;;;;21098177;28;20268;-74
2022/06/19 21:03:42;;;;;;;2.22;1.00;;;;;;;;;;21108839;28;20268;-73
2022/06/19 21:13:48;;;;;;;2.33;1.13;;;;;;;;;;21087547;28;20232;-73
2022/06/19 21:23:50;;;;;;;3.35;1.30;;;29.90;86.10;;;;;;21087203;28;20204;-73
2022/06/19 21:33:53;;;;;;;2.22;1.23;;;;;;;;;;21114568;28;20232;-73
2022/06/19 21:43:55;;;;;;;2.25;1.30;;;;;;;;;;20910621;22;20295;-74
2022/06/19 21:54:00;;;;;;;2.67;1.13;;;;;;;;;;20902261;28;20222;-74
2022/06/19 22:04:01;;;;;;;2.05;1.00;;;;;;;;;;20901878;28;20198;-74
2022/06/19 22:14:04;;;;;;;2.05;1.20;;;;;;;;;;20895938;28;20230;-74
2022/06/19 22:24:07;;;;;;;5.25;1.23;;;29.10;90.60;;;;;;20909312;28;20217;-74
2022/06/19 22:34:10;;;;;;;1.90;1.02;;;28.70;89.00;;;;;;20903373;28;20217;-73
2022/06/19 22:44:19;;;;;;;3.88;1.40;;;;;;;;;;20915021;28;20214;-74
2022/06/19 22:54:21;;;;;;;3.15;1.17;;;;;;;;;;20914169;28;20218;-74
2022/06/19 23:04:25;;;;;;;4.22;1.30;;;;;;;;;;20909264;28;20587;-74
2022/06/19 23:14:27;;;;;;;2.63;1.10;;;;;;;;;;20912813;28;20221;-74
2022/06/19 23:24:36;;;;;;;4.97;1.15;;;28.20;91.80;;;;;;20910574;28;20275;-74
2022/06/19 23:34:38;;;;;;;5.88;1.38;;;;;;;;;;20911897;28;20202;-74
2022/06/19 23:44:40;;;;;;;3.45;1.50;;;;;;;;;;20911236;28;20218;-74
2022/06/19 23:54:43;;;;;;;3.10;1.00;;;;;;;;;;20909000;28;20701;-74
